createdAt,value
2019-04-21T00:01:34.709Z,11.73
2019-04-21T00:04:12.463Z,11.67
2019-04-21T00:06:58.783Z,11.64
2019-04-21T00:09:26.053Z,11.56
2019-04-21T00:11:55.613Z,11.49
2019-04-21T00:14:22.697Z,11.47
2019-04-21T00:16:49.072Z,11.40
2019-04-21T00:19:19.078Z,11.29
2019-04-21T00:21:50.999Z,11.27
2019-04-21T00:24:28.946Z,11.19
2019-04-21T00:27:07.022Z,11.19
2019-04-21T00:32:05.248Z,11.13
2019-04-21T00:34:21.755Z,11.17
2019-04-21T00:37:03.102Z,11.24
2019-04-21T00:39:59.212Z,11.20
2019-04-21T00:42:14.557Z,11.24
2019-04-21T00:44:36.359Z,11.15
2019-04-21T00:47:16.906Z,11.18
2019-04-21T00:49:53.916Z,11.06
2019-04-21T00:52:58.117Z,10.95
2019-04-21T00:55:20.368Z,10.86
2019-04-21T00:57:44.948Z,10.81
2019-04-21T01:00:11.918Z,10.75
2019-04-21T01:05:17.918Z,10.59
2019-04-21T01:10:09.587Z,10.72
2019-04-21T01:12:53.218Z,10.71
2019-04-21T01:15:26.142Z,10.70
2019-04-21T01:17:51.946Z,10.58
2019-04-21T01:20:13.229Z,10.50
2019-04-21T01:22:30.762Z,10.44
2019-04-21T01:25:09.076Z,10.33
2019-04-21T01:27:49.404Z,10.26
2019-04-21T01:30:22.266Z,10.13
2019-04-21T01:32:57.572Z,10.06
2019-04-21T01:35:30.104Z,10.01
2019-04-21T01:38:01.933Z,10.01
2019-04-21T01:40:41.009Z,9.98
2019-04-21T01:43:06.141Z,9.93
2019-04-21T01:45:31.795Z,9.88
2019-04-21T01:48:03.606Z,9.86
2019-04-21T01:50:36.288Z,9.82
2019-04-21T01:53:17.325Z,9.81
2019-04-21T01:55:54.417Z,9.79
2019-04-21T01:58:25.482Z,9.77
2019-04-21T02:01:00.778Z,9.85
2019-04-21T02:06:18.524Z,9.83
2019-04-21T02:08:36.494Z,9.83
2019-04-21T02:13:46.840Z,9.76
2019-04-21T02:16:20.209Z,9.67
2019-04-21T02:18:44.436Z,9.65
2019-04-21T02:21:09.487Z,9.55
2019-04-21T02:23:54.305Z,9.49
2019-04-21T02:26:23.077Z,9.39
2019-04-21T02:28:56.302Z,9.41
2019-04-21T02:31:37.103Z,9.53
2019-04-21T02:34:18.446Z,9.52
2019-04-21T02:39:16.466Z,9.36
2019-04-21T02:41:45.052Z,9.25
2019-04-21T02:44:22.480Z,9.23
2019-04-21T02:46:46.697Z,9.16
2019-04-21T02:50:04.914Z,9.08
2019-04-21T02:51:42.051Z,9.07
2019-04-21T02:56:58.626Z,9.17
2019-04-21T03:04:53.298Z,9.24
2019-04-21T03:07:21.602Z,9.28
2019-04-21T03:09:49.708Z,9.30
2019-04-21T03:12:22.086Z,9.25
2019-04-21T03:17:48.796Z,9.06
2019-04-21T03:20:03.012Z,9.00
2019-04-21T03:22:32.465Z,8.89
2019-04-21T03:27:57.362Z,8.80
2019-04-21T03:30:10.946Z,8.81
2019-04-21T03:37:37.006Z,8.77
2019-04-21T03:45:25.333Z,8.56
2019-04-21T03:47:44.894Z,8.52
2019-04-21T03:50:22.732Z,8.48
2019-04-21T03:52:53.703Z,8.45
2019-04-21T04:01:00.384Z,8.37
2019-04-21T04:16:19.671Z,8.16
2019-04-21T04:18:53.766Z,8.17
2019-04-21T04:21:22.548Z,8.19
2019-04-21T04:28:56.272Z,8.05
2019-04-21T04:36:40.507Z,8.10
2019-04-21T04:39:26.115Z,8.09
2019-04-21T04:44:30.319Z,8.14
2019-04-21T04:47:01.842Z,8.24
2019-04-21T04:49:36.418Z,8.33
2019-04-21T04:52:10.134Z,8.34
2019-04-21T04:54:40.927Z,8.35
2019-04-21T05:04:39.669Z,8.30
2019-04-21T05:09:30.681Z,8.37
2019-04-21T05:12:20.992Z,8.43
2019-04-21T05:14:41.049Z,8.50
2019-04-21T05:17:03.861Z,8.56
2019-04-21T05:19:42.833Z,8.61
2019-04-21T05:22:12.178Z,8.70
2019-04-21T05:24:30.319Z,8.76
2019-04-21T05:26:58.465Z,8.84
2019-04-21T05:29:37.792Z,8.91
2019-04-21T05:32:17.277Z,9.04
2019-04-21T05:34:50.406Z,9.15
2019-04-21T05:37:25.851Z,9.26
2019-04-21T05:39:52.315Z,9.39
2019-04-21T05:42:23.823Z,9.53
2019-04-21T05:47:39.802Z,9.80
2019-04-21T05:50:06.419Z,9.95
2019-04-21T05:52:35.311Z,10.13
2019-04-21T05:55:16.861Z,10.33
2019-04-21T05:57:47.883Z,10.53
2019-04-21T06:00:19.671Z,10.70
2019-04-21T06:02:52.012Z,10.90
2019-04-21T06:07:53.755Z,11.29
2019-04-21T06:10:27.427Z,11.56
2019-04-21T06:12:59.905Z,11.85
2019-04-21T06:15:41.745Z,12.04
2019-04-21T06:18:06.403Z,12.26
2019-04-21T06:20:33.465Z,12.65
2019-04-21T06:23:04.235Z,13.22
2019-04-21T06:28:12.167Z,13.74
2019-04-21T06:30:54.924Z,13.94
2019-04-21T06:33:10.728Z,14.11
2019-04-21T06:36:07.790Z,14.35
2019-04-21T06:38:28.232Z,14.87
2019-04-21T06:40:50.102Z,15.04
2019-04-21T06:43:42.051Z,15.44
2019-04-21T06:45:55.802Z,15.74
2019-04-21T06:48:28.473Z,16.25
2019-04-21T06:51:03.170Z,16.78
2019-04-21T06:53:35.787Z,17.54
2019-04-21T06:56:02.033Z,18.03
2019-04-21T06:58:27.839Z,18.19
2019-04-21T07:01:05.464Z,18.86
2019-04-21T07:03:38.885Z,19.19
2019-04-21T07:06:08.120Z,19.79
2019-04-21T07:08:44.794Z,20.53
2019-04-21T07:11:12.437Z,21.66
2019-04-21T07:13:41.583Z,22.37
2019-04-21T07:16:12.039Z,22.24
2019-04-21T07:18:54.150Z,22.55
2019-04-21T07:21:14.127Z,24.02
2019-04-21T07:23:48.935Z,24.11
2019-04-21T07:26:23.775Z,24.46
2019-04-21T07:28:59.795Z,25.52
2019-04-21T07:31:20.795Z,24.78
2019-04-21T07:34:02.003Z,25.14
2019-04-21T07:36:30.510Z,25.85
2019-04-21T07:38:49.739Z,26.17
2019-04-21T07:41:15.819Z,26.86
2019-04-21T07:43:55.255Z,26.92
2019-04-21T07:46:25.625Z,26.75
2019-04-21T07:49:07.442Z,26.80
2019-04-21T07:51:56.538Z,26.11
2019-04-21T07:54:32.044Z,27.96
2019-04-21T07:56:39.869Z,28.09
2019-04-21T07:59:40.889Z,27.38
2019-04-21T08:01:56.403Z,28.23
2019-04-21T08:04:49.558Z,28.13
2019-04-21T08:06:57.156Z,26.18
2019-04-21T08:09:33.083Z,27.08
2019-04-21T08:12:01.388Z,27.76
2019-04-21T08:14:49.430Z,28.74
2019-04-21T08:17:03.217Z,27.88
2019-04-21T08:19:33.818Z,28.88
2019-04-21T08:22:12.657Z,27.93
2019-04-21T08:24:35.224Z,28.10
2019-04-21T08:27:14.186Z,28.55
2019-04-21T08:29:42.096Z,28.25
2019-04-21T08:34:43.242Z,30.52
2019-04-21T08:37:15.118Z,29.55
2019-04-21T08:39:59.408Z,30.83
2019-04-21T08:42:18.529Z,30.67
2019-04-21T08:44:50.007Z,30.10
2019-04-21T08:47:20.428Z,29.93
2019-04-21T08:49:47.582Z,31.18
2019-04-21T08:52:36.250Z,31.28
2019-04-21T08:55:11.149Z,30.88
2019-04-21T08:58:00.408Z,31.56
2019-04-21T09:00:32.399Z,31.79
2019-04-21T09:03:11.730Z,32.54
2019-04-21T09:05:35.690Z,31.73
2019-04-21T09:08:10.577Z,31.07
2019-04-21T09:10:42.227Z,29.72
2019-04-21T09:13:10.274Z,32.17
2019-04-21T09:15:41.910Z,31.59
2019-04-21T09:18:11.967Z,31.39
2019-04-21T09:23:15.432Z,31.31
2019-04-21T09:25:53.175Z,32.03
2019-04-21T09:28:16.720Z,33.25
2019-04-21T09:30:39.631Z,32.22
2019-04-21T09:33:05.283Z,32.45
2019-04-21T09:35:35.812Z,32.73
2019-04-21T09:38:17.112Z,33.57
2019-04-21T09:40:42.332Z,33.80
2019-04-21T09:43:11.375Z,33.59
2019-04-21T09:45:40.506Z,32.58
2019-04-21T09:48:16.694Z,32.64
2019-04-21T09:50:41.530Z,31.98
2019-04-21T09:53:20.684Z,32.15
2019-04-21T09:55:50.534Z,32.72
2019-04-21T09:58:24.217Z,33.16
2019-04-21T10:00:57.285Z,33.96
2019-04-21T10:03:17.993Z,34.71
2019-04-21T10:05:47.695Z,33.98
2019-04-21T10:08:17.232Z,32.54
2019-04-21T10:10:46.920Z,33.32
2019-04-21T10:13:17.129Z,32.40
2019-04-21T10:15:48.572Z,31.64
2019-04-21T10:18:22.745Z,31.93
2019-04-21T10:20:52.220Z,32.62
2019-04-21T10:23:21.804Z,32.64
2019-04-21T10:25:52.279Z,33.05
2019-04-21T10:28:23.000Z,32.37
2019-04-21T10:30:52.932Z,34.05
2019-04-21T10:33:22.390Z,31.87
2019-04-21T10:35:52.981Z,32.50
2019-04-21T10:38:30.201Z,31.87
2019-04-21T10:40:53.822Z,31.31
2019-04-21T10:43:24.365Z,30.72
2019-04-21T10:45:54.869Z,32.36
2019-04-21T10:48:25.210Z,32.02
2019-04-21T10:50:54.995Z,31.85
2019-04-21T10:53:27.013Z,31.54
2019-04-21T10:56:10.478Z,32.31
2019-04-21T10:58:34.046Z,31.94
2019-04-21T11:01:14.413Z,31.22
2019-04-21T11:04:00.530Z,32.04
2019-04-21T11:06:30.882Z,33.44
2019-04-21T11:09:03.049Z,32.03
2019-04-21T11:11:32.083Z,32.51
2019-04-21T11:14:02.445Z,31.83
2019-04-21T11:16:33.224Z,31.13
2019-04-21T11:19:03.945Z,32.58
2019-04-21T11:21:34.630Z,33.04
2019-04-21T11:24:04.310Z,32.91
2019-04-21T11:26:33.939Z,32.95
2019-04-21T11:29:05.091Z,32.10
2019-04-21T11:31:34.738Z,32.00
2019-04-21T11:34:05.142Z,31.88
2019-04-21T11:36:35.306Z,32.77
2019-04-21T11:39:22.014Z,31.93
2019-04-21T11:41:39.921Z,32.24
2019-04-21T11:44:09.875Z,32.10
2019-04-21T11:46:40.402Z,31.62
2019-04-21T11:49:10.426Z,33.32
2019-04-21T11:51:40.775Z,32.95
2019-04-21T11:54:10.846Z,31.90
2019-04-21T11:56:40.963Z,31.36
2019-04-21T11:59:10.533Z,31.36
2019-04-21T12:01:41.457Z,31.83
2019-04-21T12:04:11.737Z,32.19
2019-04-21T12:06:45.419Z,32.22
2019-04-21T12:09:12.512Z,33.19
2019-04-21T12:11:43.253Z,32.06
2019-04-21T12:14:14.118Z,32.56
2019-04-21T12:16:43.760Z,31.92
2019-04-21T12:19:14.296Z,31.71
2019-04-21T12:21:54.563Z,32.10
2019-04-21T12:24:15.412Z,32.41
2019-04-21T12:26:46.251Z,31.73
2019-04-21T12:29:16.673Z,32.36
2019-04-21T12:32:05.541Z,31.81
2019-04-21T12:34:36.260Z,31.38
2019-04-21T12:37:06.680Z,30.26
2019-04-21T12:39:36.882Z,31.23
2019-04-21T12:42:06.820Z,31.12
2019-04-21T12:44:37.153Z,31.59
2019-04-21T12:47:07.947Z,31.21
2019-04-21T12:49:38.096Z,31.71
2019-04-21T12:52:11.435Z,32.45
2019-04-21T12:54:41.791Z,32.13
2019-04-21T12:57:11.822Z,31.35
2019-04-21T12:59:42.530Z,31.24
2019-04-21T13:02:13.640Z,30.72
2019-04-21T13:04:43.959Z,31.11
2019-04-21T13:07:13.623Z,30.61
2019-04-21T13:09:44.328Z,31.55
2019-04-21T13:12:15.229Z,31.95
2019-04-21T13:14:44.826Z,31.34
2019-04-21T13:17:15.224Z,30.73
2019-04-21T13:19:45.302Z,31.31
2019-04-21T13:22:16.068Z,31.34
2019-04-21T13:24:45.626Z,31.20
2019-04-21T13:27:15.609Z,32.16
2019-04-21T13:29:46.233Z,32.64
2019-04-21T13:32:16.361Z,30.66
2019-04-21T13:34:46.290Z,30.19
2019-04-21T13:37:17.554Z,30.90
2019-04-21T13:40:21.115Z,30.43
2019-04-21T13:42:39.978Z,32.15
2019-04-21T13:45:08.229Z,31.45
2019-04-21T13:47:38.668Z,30.97
2019-04-21T13:50:11.078Z,31.01
2019-04-21T13:52:40.813Z,32.14
2019-04-21T13:55:11.849Z,32.21
2019-04-21T13:57:41.408Z,32.49
2019-04-21T14:00:13.061Z,32.46
2019-04-21T14:02:42.871Z,32.80
2019-04-21T14:05:15.491Z,32.95
2019-04-21T14:07:44.149Z,30.86
2019-04-21T14:10:16.040Z,32.11
2019-04-21T14:12:46.754Z,32.76
2019-04-21T14:15:18.074Z,32.34
2019-04-21T14:17:48.916Z,33.03
2019-04-21T14:20:19.527Z,32.60
2019-04-21T14:22:49.685Z,33.05
2019-04-21T14:25:19.622Z,32.92
2019-04-21T14:27:51.903Z,32.33
2019-04-21T14:30:22.771Z,32.15
2019-04-21T14:32:53.994Z,32.51
2019-04-21T14:35:25.015Z,32.24
2019-04-21T14:37:54.719Z,32.59
2019-04-21T14:40:27.631Z,32.32
2019-04-21T14:42:56.197Z,32.67
2019-04-21T14:45:40.697Z,32.06
2019-04-21T14:48:29.447Z,33.00
2019-04-21T14:51:04.584Z,32.29
2019-04-21T14:53:36.071Z,32.75
2019-04-21T14:56:07.064Z,32.81
2019-04-21T14:58:37.096Z,32.79
2019-04-21T15:01:08.315Z,31.40
2019-04-21T15:03:39.478Z,31.50
2019-04-21T15:06:09.373Z,31.35
2019-04-21T15:08:39.495Z,31.90
2019-04-21T15:11:09.600Z,31.71
2019-04-21T15:13:39.701Z,31.44
2019-04-21T15:16:09.295Z,32.49
2019-04-21T15:18:39.062Z,32.16
2019-04-21T15:21:08.753Z,31.66
2019-04-21T15:23:38.367Z,32.09
2019-04-21T15:26:08.288Z,32.43
2019-04-21T15:28:39.101Z,30.85
2019-04-21T15:31:13.445Z,30.79
2019-04-21T15:33:41.241Z,30.60
2019-04-21T15:36:11.269Z,30.72
2019-04-21T15:38:40.843Z,30.31
2019-04-21T15:41:10.948Z,30.72
2019-04-21T15:43:42.611Z,30.79
2019-04-21T15:46:13.054Z,30.50
2019-04-21T15:48:42.770Z,30.20
2019-04-21T15:51:13.574Z,30.09
2019-04-21T15:53:45.817Z,31.01
2019-04-21T15:56:28.995Z,30.30
2019-04-21T15:58:58.935Z,30.27
2019-04-21T16:01:28.334Z,29.86
2019-04-21T16:04:00.411Z,30.13
2019-04-21T16:06:29.671Z,29.40
2019-04-21T16:09:01.050Z,29.88
2019-04-21T16:11:31.632Z,29.29
2019-04-21T16:14:01.875Z,29.17
2019-04-21T16:16:32.691Z,29.02
2019-04-21T16:19:03.926Z,28.58
2019-04-21T16:21:38.394Z,28.25
2019-04-21T16:24:04.794Z,28.10
2019-04-21T16:26:34.995Z,27.64
2019-04-21T16:29:05.055Z,27.66
2019-04-21T16:31:34.691Z,27.21
2019-04-21T16:34:05.128Z,26.97
2019-04-21T16:36:35.849Z,26.59
2019-04-21T16:39:07.641Z,26.40
2019-04-21T16:41:38.342Z,26.28
2019-04-21T16:44:09.423Z,26.25
2019-04-21T16:46:38.937Z,26.26
2019-04-21T16:49:09.627Z,25.99
2019-04-21T16:51:40.301Z,25.83
2019-04-21T16:54:11.448Z,25.67
2019-04-21T16:56:45.690Z,25.52
2019-04-21T16:59:16.870Z,25.36
2019-04-21T17:01:46.842Z,25.34
2019-04-21T17:04:16.419Z,25.31
2019-04-21T17:06:47.131Z,25.05
2019-04-21T17:09:16.849Z,25.10
2019-04-21T17:11:46.971Z,25.03
2019-04-21T17:14:37.544Z,25.06
2019-04-21T17:17:15.652Z,24.87
2019-04-21T17:19:27.800Z,24.76
2019-04-21T17:21:52.103Z,24.62
2019-04-21T17:24:22.190Z,24.61
2019-04-21T17:26:53.213Z,24.56
2019-04-21T17:29:22.919Z,24.51
2019-04-21T17:31:53.199Z,24.43
2019-04-21T17:34:26.133Z,24.21
2019-04-21T17:36:55.058Z,24.08
2019-04-21T17:39:24.928Z,23.95
2019-04-21T17:42:05.271Z,23.98
2019-04-21T17:44:25.823Z,24.11
2019-04-21T17:47:01.416Z,24.02
2019-04-21T17:49:26.715Z,23.79
2019-04-21T17:52:19.468Z,23.54
2019-04-21T17:55:10.273Z,23.29
2019-04-21T17:57:54.465Z,23.04
2019-04-21T18:00:53.555Z,22.94
2019-04-21T18:03:01.899Z,22.74
2019-04-21T18:05:34.144Z,22.90
2019-04-21T18:07:54.568Z,23.08
2019-04-21T18:10:33.948Z,22.84
2019-04-21T18:12:59.246Z,22.55
2019-04-21T18:15:37.169Z,22.33
2019-04-21T18:17:52.473Z,21.97
2019-04-21T18:20:41.907Z,21.83
2019-04-21T18:23:44.342Z,21.61
2019-04-21T18:26:08.116Z,21.34
2019-04-21T18:28:34.684Z,21.09
2019-04-21T18:31:06.899Z,20.94
2019-04-21T18:33:40.491Z,20.87
2019-04-21T18:36:22.546Z,20.75
2019-04-21T18:39:04.185Z,20.50
2019-04-21T18:41:19.574Z,20.28
2019-04-21T18:47:07.313Z,20.11
2019-04-21T18:49:17.729Z,19.85
2019-04-21T18:52:18.143Z,19.69
2019-04-21T18:54:48.724Z,19.83
2019-04-21T18:57:17.253Z,19.79
2019-04-21T18:59:43.067Z,19.66
2019-04-21T19:02:13.571Z,19.55
2019-04-21T19:04:42.786Z,19.63
2019-04-21T19:07:27.550Z,19.49
2019-04-21T19:15:00.095Z,19.38
2019-04-21T19:22:38.740Z,19.16
2019-04-21T19:25:12.905Z,19.02
2019-04-21T19:27:42.230Z,18.82
2019-04-21T19:30:20.239Z,18.72
2019-04-21T19:32:45.445Z,18.55
2019-04-21T19:35:01.883Z,18.38
2019-04-21T19:37:40.089Z,18.27
2019-04-21T19:40:15.907Z,18.16
2019-04-21T19:42:43.776Z,18.22
2019-04-21T19:45:22.206Z,18.13
2019-04-21T19:47:56.528Z,18.02
2019-04-21T19:50:28.722Z,18.02
2019-04-21T19:52:54.516Z,17.84
2019-04-21T19:55:14.115Z,17.75
2019-04-21T19:57:45.038Z,17.60
2019-04-21T20:00:15.977Z,17.49
2019-04-21T20:02:46.368Z,17.34
2019-04-21T20:05:28.219Z,17.12
2019-04-21T20:08:05.011Z,16.96
2019-04-21T20:10:39.678Z,16.83
2019-04-21T20:13:14.747Z,16.66
2019-04-21T20:15:41.616Z,16.54
2019-04-21T20:18:05.979Z,16.45
2019-04-21T20:20:24.874Z,16.30
2019-04-21T20:22:56.071Z,16.21
2019-04-21T20:25:27.236Z,16.13
2019-04-21T20:28:04.965Z,15.99
2019-04-21T20:30:42.387Z,15.85
2019-04-21T20:35:58.704Z,15.64
2019-04-21T20:38:15.671Z,15.55
2019-04-21T20:40:41.208Z,15.49
2019-04-21T20:43:28.960Z,15.38
2019-04-21T20:46:00.444Z,15.30
2019-04-21T20:48:17.742Z,15.19
2019-04-21T20:51:00.564Z,15.06
2019-04-21T20:53:25.992Z,14.98
2019-04-21T20:55:52.895Z,14.85
2019-04-21T20:58:28.102Z,14.76
2019-04-21T21:01:20.276Z,14.69
2019-04-21T21:03:34.850Z,14.60
2019-04-21T21:05:58.572Z,14.49
2019-04-21T21:08:35.815Z,14.39
2019-04-21T21:11:00.259Z,14.36
2019-04-21T21:13:53.758Z,14.31
2019-04-21T21:16:13.998Z,14.26
2019-04-21T21:18:56.508Z,14.39
2019-04-21T21:21:11.423Z,14.55
2019-04-21T21:23:44.770Z,14.59
2019-04-21T21:26:16.021Z,14.59
2019-04-21T21:28:38.978Z,14.62
2019-04-21T21:31:24.923Z,14.40
2019-04-21T21:33:57.447Z,14.33
2019-04-21T21:36:19.635Z,14.13
2019-04-21T21:38:55.889Z,14.01
2019-04-21T21:41:14.069Z,13.87
2019-04-21T21:43:39.167Z,13.72
2019-04-21T21:46:27.164Z,13.56
2019-04-21T21:48:53.855Z,13.47
2019-04-21T21:51:20.522Z,13.33
2019-04-21T21:53:44.413Z,13.25
2019-04-21T21:56:14.489Z,13.21
2019-04-21T21:58:46.210Z,13.16
2019-04-21T22:01:20.956Z,13.13
2019-04-21T22:03:52.544Z,13.01
2019-04-21T22:06:23.376Z,13.01
2019-04-21T22:08:50.536Z,13.11
2019-04-21T22:11:20.194Z,13.22
2019-04-21T22:13:58.816Z,13.09
2019-04-21T22:16:23.000Z,13.00
2019-04-21T22:19:14.211Z,13.03
2019-04-21T22:21:41.534Z,12.97
2019-04-21T22:24:00.253Z,13.01
2019-04-21T22:26:27.264Z,12.86
2019-04-21T22:28:58.152Z,12.86
2019-04-21T22:31:32.180Z,12.85
2019-04-21T22:34:05.436Z,12.73
2019-04-21T22:36:44.422Z,12.74
2019-04-21T22:39:19.290Z,12.70
2019-04-21T22:41:39.238Z,12.62
2019-04-21T22:44:04.886Z,12.60
2019-04-21T22:46:36.036Z,12.62
2019-04-21T22:49:09.369Z,12.67
2019-04-21T22:51:41.521Z,12.72
2019-04-21T22:54:08.305Z,12.72
2019-04-21T22:56:50.469Z,12.72
2019-04-21T22:59:15.024Z,12.94
2019-04-21T23:01:46.101Z,13.09
2019-04-21T23:04:12.458Z,13.27
2019-04-21T23:06:44.303Z,13.35
2019-04-21T23:09:15.029Z,13.38
2019-04-21T23:11:49.179Z,13.46
2019-04-21T23:14:17.538Z,13.47
2019-04-21T23:16:53.661Z,13.48
2019-04-21T23:19:34.850Z,13.42
2019-04-21T23:22:12.125Z,13.32
2019-04-21T23:24:49.709Z,13.23
2019-04-21T23:27:09.228Z,13.09
2019-04-21T23:29:57.344Z,13.04
2019-04-21T23:32:11.009Z,13.05
2019-04-21T23:34:32.428Z,13.04
2019-04-21T23:37:03.220Z,12.95
2019-04-21T23:39:31.996Z,12.93
2019-04-21T23:42:01.335Z,12.95
2019-04-21T23:44:32.924Z,12.87
2019-04-21T23:47:06.480Z,12.80
2019-04-21T23:49:42.589Z,12.71
2019-04-21T23:52:09.981Z,12.61
2019-04-21T23:54:37.489Z,12.50
2019-04-21T23:57:14.085Z,12.38
2019-04-21T23:59:44.722Z,12.32
